sensor_id;sensor_type;location;lat;lon;timestamp;P1;durP1;ratioP1;P2;durP2;ratioP2
809;SDS011;387;48.772;9.186;2023-03-14T00:00:37;2.10;;;0.80;;
809;SDS011;387;48.772;9.186;2023-03-14T00:03:03;2.57;;;0.87;;
809;SDS011;387;48.772;9.186;2023-03-14T00:05:29;1.53;;;0.80;;
809;SDS011;387;48.772;9.186;2023-03-14T00:07:54;2.37;;;0.90;;
809;SDS011;387;48.772;9.186;2023-03-14T00:10:20;0.70;;;0.60;;
809;SDS011;387;48.772;9.186;2023-03-14T00:12:46;2.33;;;0.73;;
809;SDS011;387;48.772;9.186;2023-03-14T00:15:12;1.77;;;0.80;;
809;SDS011;387;48.772;9.186;2023-03-14T00:17:37;1.20;;;0.70;;
809;SDS011;387;48.772;9.186;2023-03-14T00:20:04;1.40;;;0.80;;
809;SDS011;387;48.772;9.186;2023-03-14T00:22:36;1.67;;;1.03;;
809;SDS011;387;48.772;9.186;2023-03-14T00:25:03;1.87;;;0.90;;
809;SDS011;387;48.772;9.186;2023-03-14T00:27:30;1.43;;;0.87;;
809;SDS011;387;48.772;9.186;2023-03-14T00:29:56;2.00;;;0.90;;
809;SDS011;387;48.772;9.186;2023-03-14T00:32:21;1.00;;;0.83;;
809;SDS011;387;48.772;9.186;2023-03-14T00:34:47;1.40;;;1.07;;
809;SDS011;387;48.772;9.186;2023-03-14T00:37:13;2.63;;;1.13;;
809;SDS011;387;48.772;9.186;2023-03-14T00:39:39;1.30;;;0.80;;
809;SDS011;387;48.772;9.186;2023-03-14T00:42:04;1.20;;;0.90;;
809;SDS011;387;48.772;9.186;2023-03-14T00:44:30;2.20;;;0.80;;
809;SDS011;387;48.772;9.186;2023-03-14T00:46:56;1.50;;;1.00;;
809;SDS011;387;48.772;9.186;2023-03-14T00:49:22;2.70;;;0.90;;
809;SDS011;387;48.772;9.186;2023-03-14T00:51:48;1.27;;;0.90;;
809;SDS011;387;48.772;9.186;2023-03-14T00:54:13;1.57;;;0.90;;
809;SDS011;387;48.772;9.186;2023-03-14T00:56:39;1.33;;;0.73;;
809;SDS011;387;48.772;9.186;2023-03-14T00:59:05;2.43;;;1.10;;
809;SDS011;387;48.772;9.186;2023-03-14T01:01:30;1.87;;;0.80;;
809;SDS011;387;48.772;9.186;2023-03-14T01:03:56;1.30;;;1.10;;
809;SDS011;387;48.772;9.186;2023-03-14T01:06:25;2.30;;;0.77;;
809;SDS011;387;48.772;9.186;2023-03-14T01:08:52;1.07;;;0.80;;
809;SDS011;387;48.772;9.186;2023-03-14T01:11:23;0.83;;;0.70;;
809;SDS011;387;48.772;9.186;2023-03-14T01:13:50;1.70;;;0.73;;
809;SDS011;387;48.772;9.186;2023-03-14T01:16:17;1.03;;;0.80;;
809;SDS011;387;48.772;9.186;2023-03-14T01:18:44;1.20;;;0.73;;
809;SDS011;387;48.772;9.186;2023-03-14T01:21:12;0.80;;;0.60;;
809;SDS011;387;48.772;9.186;2023-03-14T01:23:40;1.37;;;1.00;;
809;SDS011;387;48.772;9.186;2023-03-14T01:26:08;0.90;;;0.80;;
809;SDS011;387;48.772;9.186;2023-03-14T01:28:37;2.20;;;1.00;;
809;SDS011;387;48.772;9.186;2023-03-14T01:31:04;3.87;;;0.90;;
809;SDS011;387;48.772;9.186;2023-03-14T01:33:31;1.30;;;0.80;;
809;SDS011;387;48.772;9.186;2023-03-14T01:35:57;1.23;;;0.80;;
809;SDS011;387;48.772;9.186;2023-03-14T01:38:22;0.90;;;0.70;;
809;SDS011;387;48.772;9.186;2023-03-14T01:40:48;1.00;;;0.70;;
809;SDS011;387;48.772;9.186;2023-03-14T01:43:15;1.57;;;0.90;;
809;SDS011;387;48.772;9.186;2023-03-14T01:48:36;0.80;;;0.50;;
809;SDS011;387;48.772;9.186;2023-03-14T01:51:09;1.43;;;0.80;;
809;SDS011;387;48.772;9.186;2023-03-14T01:53:38;2.10;;;0.80;;
809;SDS011;387;48.772;9.186;2023-03-14T01:56:04;1.20;;;0.70;;
809;SDS011;387;48.772;9.186;2023-03-14T01:58:31;1.03;;;0.70;;
809;SDS011;387;48.772;9.186;2023-03-14T02:00:59;2.67;;;0.90;;
809;SDS011;387;48.772;9.186;2023-03-14T02:03:27;1.47;;;0.70;;
809;SDS011;387;48.772;9.186;2023-03-14T02:05:55;1.53;;;0.90;;
809;SDS011;387;48.772;9.186;2023-03-14T02:08:25;1.83;;;0.80;;
809;SDS011;387;48.772;9.186;2023-03-14T02:10:52;1.13;;;0.77;;
809;SDS011;387;48.772;9.186;2023-03-14T02:13:19;0.90;;;0.70;;
809;SDS011;387;48.772;9.186;2023-03-14T02:15:46;1.00;;;0.83;;
809;SDS011;387;48.772;9.186;2023-03-14T02:18:12;3.13;;;0.90;;
809;SDS011;387;48.772;9.186;2023-03-14T02:23:30;1.13;;;0.60;;
809;SDS011;387;48.772;9.186;2023-03-14T02:25:59;5.13;;;0.90;;
809;SDS011;387;48.772;9.186;2023-03-14T02:28:33;2.87;;;0.60;;
809;SDS011;387;48.772;9.186;2023-03-14T02:30:59;1.20;;;0.67;;
809;SDS011;387;48.772;9.186;2023-03-14T02:33:25;1.10;;;0.73;;
809;SDS011;387;48.772;9.186;2023-03-14T02:35:52;2.30;;;1.00;;
809;SDS011;387;48.772;9.186;2023-03-14T02:38:23;0.87;;;0.60;;
809;SDS011;387;48.772;9.186;2023-03-14T02:40:58;1.43;;;0.60;;
809;SDS011;387;48.772;9.186;2023-03-14T02:43:24;0.93;;;0.60;;
809;SDS011;387;48.772;9.186;2023-03-14T02:45:50;1.27;;;0.60;;
809;SDS011;387;48.772;9.186;2023-03-14T02:48:26;1.37;;;0.93;;
809;SDS011;387;48.772;9.186;2023-03-14T02:50:56;1.50;;;0.80;;
809;SDS011;387;48.772;9.186;2023-03-14T02:53:25;2.20;;;0.83;;
809;SDS011;387;48.772;9.186;2023-03-14T02:55:52;3.80;;;0.70;;
809;SDS011;387;48.772;9.186;2023-03-14T02:58:18;0.93;;;0.70;;
809;SDS011;387;48.772;9.186;2023-03-14T03:00:44;1.37;;;0.73;;
809;SDS011;387;48.772;9.186;2023-03-14T03:03:10;1.20;;;0.70;;
809;SDS011;387;48.772;9.186;2023-03-14T03:05:36;0.97;;;0.60;;
809;SDS011;387;48.772;9.186;2023-03-14T03:08:01;1.30;;;0.80;;
809;SDS011;387;48.772;9.186;2023-03-14T03:10:27;1.73;;;0.60;;
809;SDS011;387;48.772;9.186;2023-03-14T03:12:54;0.90;;;0.70;;
809;SDS011;387;48.772;9.186;2023-03-14T03:15:19;1.30;;;1.00;;
809;SDS011;387;48.772;9.186;2023-03-14T03:17:45;1.30;;;0.70;;
809;SDS011;387;48.772;9.186;2023-03-14T03:20:10;1.50;;;0.90;;
809;SDS011;387;48.772;9.186;2023-03-14T03:22:37;1.10;;;0.73;;
809;SDS011;387;48.772;9.186;2023-03-14T03:25:04;2.33;;;0.87;;
809;SDS011;387;48.772;9.186;2023-03-14T03:27:31;2.90;;;1.00;;
809;SDS011;387;48.772;9.186;2023-03-14T03:29:57;1.57;;;0.97;;
809;SDS011;387;48.772;9.186;2023-03-14T03:32:23;3.17;;;0.93;;
809;SDS011;387;48.772;9.186;2023-03-14T03:34:49;1.53;;;0.93;;
809;SDS011;387;48.772;9.186;2023-03-14T03:37:15;1.07;;;0.70;;
809;SDS011;387;48.772;9.186;2023-03-14T03:39:40;1.93;;;0.97;;
809;SDS011;387;48.772;9.186;2023-03-14T03:42:06;2.30;;;1.00;;
809;SDS011;387;48.772;9.186;2023-03-14T03:44:32;4.50;;;1.03;;
809;SDS011;387;48.772;9.186;2023-03-14T03:46:57;1.37;;;1.00;;
809;SDS011;387;48.772;9.186;2023-03-14T03:49:23;1.97;;;1.00;;
809;SDS011;387;48.772;9.186;2023-03-14T03:51:48;4.50;;;1.53;;
809;SDS011;387;48.772;9.186;2023-03-14T03:54:14;6.97;;;1.00;;
809;SDS011;387;48.772;9.186;2023-03-14T03:56:40;1.80;;;0.97;;
809;SDS011;387;48.772;9.186;2023-03-14T03:59:05;4.03;;;1.10;;
809;SDS011;387;48.772;9.186;2023-03-14T04:01:31;2.80;;;0.87;;
809;SDS011;387;48.772;9.186;2023-03-14T04:03:56;2.33;;;1.00;;
809;SDS011;387;48.772;9.186;2023-03-14T04:06:22;4.73;;;1.17;;
809;SDS011;387;48.772;9.186;2023-03-14T04:08:47;2.63;;;1.00;;
809;SDS011;387;48.772;9.186;2023-03-14T04:11:13;3.20;;;1.10;;
809;SDS011;387;48.772;9.186;2023-03-14T04:13:39;3.93;;;1.03;;
809;SDS011;387;48.772;9.186;2023-03-14T04:16:09;3.10;;;1.03;;
809;SDS011;387;48.772;9.186;2023-03-14T04:18:39;3.03;;;1.43;;
809;SDS011;387;48.772;9.186;2023-03-14T04:21:04;10.30;;;1.30;;
809;SDS011;387;48.772;9.186;2023-03-14T04:23:30;1.80;;;1.10;;
809;SDS011;387;48.772;9.186;2023-03-14T04:25:56;3.67;;;0.97;;
809;SDS011;387;48.772;9.186;2023-03-14T04:28:21;3.20;;;1.03;;
809;SDS011;387;48.772;9.186;2023-03-14T04:30:47;3.70;;;1.40;;
809;SDS011;387;48.772;9.186;2023-03-14T04:33:12;2.87;;;1.63;;
809;SDS011;387;48.772;9.186;2023-03-14T04:35:42;3.70;;;1.10;;
809;SDS011;387;48.772;9.186;2023-03-14T04:38:08;5.63;;;1.07;;
809;SDS011;387;48.772;9.186;2023-03-14T04:40:36;2.23;;;1.23;;
809;SDS011;387;48.772;9.186;2023-03-14T04:43:05;2.23;;;0.90;;
809;SDS011;387;48.772;9.186;2023-03-14T04:45:31;2.70;;;0.90;;
809;SDS011;387;48.772;9.186;2023-03-14T04:47:56;4.50;;;1.00;;
809;SDS011;387;48.772;9.186;2023-03-14T04:50:22;2.17;;;1.23;;
809;SDS011;387;48.772;9.186;2023-03-14T04:52:48;7.73;;;1.40;;
809;SDS011;387;48.772;9.186;2023-03-14T04:55:13;1.70;;;1.00;;
809;SDS011;387;48.772;9.186;2023-03-14T04:57:39;4.03;;;0.90;;
809;SDS011;387;48.772;9.186;2023-03-14T05:00:05;3.80;;;1.23;;
809;SDS011;387;48.772;9.186;2023-03-14T05:02:32;3.70;;;1.60;;
809;SDS011;387;48.772;9.186;2023-03-14T05:04:57;3.40;;;1.13;;
809;SDS011;387;48.772;9.186;2023-03-14T05:07:23;3.27;;;1.07;;
809;SDS011;387;48.772;9.186;2023-03-14T05:09:49;4.73;;;1.10;;
809;SDS011;387;48.772;9.186;2023-03-14T05:12:14;4.53;;;1.70;;
809;SDS011;387;48.772;9.186;2023-03-14T05:14:40;6.23;;;1.17;;
809;SDS011;387;48.772;9.186;2023-03-14T05:17:05;2.20;;;1.20;;
809;SDS011;387;48.772;9.186;2023-03-14T05:19:31;2.00;;;1.20;;
809;SDS011;387;48.772;9.186;2023-03-14T05:21:57;2.77;;;1.10;;
809;SDS011;387;48.772;9.186;2023-03-14T05:24:22;7.37;;;1.30;;
809;SDS011;387;48.772;9.186;2023-03-14T05:26:48;3.63;;;1.10;;
809;SDS011;387;48.772;9.186;2023-03-14T05:29:13;3.07;;;1.67;;
809;SDS011;387;48.772;9.186;2023-03-14T05:31:39;2.57;;;1.00;;
809;SDS011;387;48.772;9.186;2023-03-14T05:34:04;6.90;;;2.03;;
809;SDS011;387;48.772;9.186;2023-03-14T05:36:30;3.13;;;1.03;;
809;SDS011;387;48.772;9.186;2023-03-14T05:38:56;2.40;;;1.10;;
809;SDS011;387;48.772;9.186;2023-03-14T05:41:21;3.30;;;1.17;;
809;SDS011;387;48.772;9.186;2023-03-14T05:43:47;3.03;;;1.17;;
809;SDS011;387;48.772;9.186;2023-03-14T05:46:12;2.40;;;1.00;;
809;SDS011;387;48.772;9.186;2023-03-14T05:48:38;2.57;;;1.00;;
809;SDS011;387;48.772;9.186;2023-03-14T05:51:03;2.13;;;1.30;;
809;SDS011;387;48.772;9.186;2023-03-14T05:53:29;3.57;;;1.37;;
809;SDS011;387;48.772;9.186;2023-03-14T05:55:55;3.00;;;1.17;;
809;SDS011;387;48.772;9.186;2023-03-14T05:58:21;3.40;;;1.10;;
809;SDS011;387;48.772;9.186;2023-03-14T06:00:47;2.07;;;0.90;;
809;SDS011;387;48.772;9.186;2023-03-14T06:03:13;2.53;;;0.90;;
809;SDS011;387;48.772;9.186;2023-03-14T06:05:39;1.70;;;1.17;;
809;SDS011;387;48.772;9.186;2023-03-14T06:08:05;4.70;;;1.10;;
809;SDS011;387;48.772;9.186;2023-03-14T06:10:30;2.23;;;0.97;;
809;SDS011;387;48.772;9.186;2023-03-14T06:12:56;2.47;;;1.00;;
809;SDS011;387;48.772;9.186;2023-03-14T06:15:22;2.00;;;1.20;;
809;SDS011;387;48.772;9.186;2023-03-14T06:17:47;4.30;;;1.30;;
809;SDS011;387;48.772;9.186;2023-03-14T06:20:13;3.10;;;1.20;;
809;SDS011;387;48.772;9.186;2023-03-14T06:22:39;3.77;;;1.10;;
809;SDS011;387;48.772;9.186;2023-03-14T06:25:05;4.03;;;1.13;;
809;SDS011;387;48.772;9.186;2023-03-14T06:27:31;4.40;;;1.30;;
809;SDS011;387;48.772;9.186;2023-03-14T06:29:57;5.40;;;1.20;;
809;SDS011;387;48.772;9.186;2023-03-14T06:32:23;7.77;;;1.37;;
809;SDS011;387;48.772;9.186;2023-03-14T06:34:49;3.63;;;1.20;;
809;SDS011;387;48.772;9.186;2023-03-14T06:37:15;4.80;;;1.20;;
809;SDS011;387;48.772;9.186;2023-03-14T06:39:41;4.70;;;1.30;;
809;SDS011;387;48.772;9.186;2023-03-14T06:42:06;2.80;;;1.40;;
809;SDS011;387;48.772;9.186;2023-03-14T06:44:32;16.47;;;1.60;;
809;SDS011;387;48.772;9.186;2023-03-14T06:46:57;5.13;;;1.53;;
809;SDS011;387;48.772;9.186;2023-03-14T06:49:23;1.53;;;0.90;;
809;SDS011;387;48.772;9.186;2023-03-14T06:51:50;2.10;;;1.00;;
809;SDS011;387;48.772;9.186;2023-03-14T06:54:15;14.57;;;1.03;;
809;SDS011;387;48.772;9.186;2023-03-14T06:56:41;2.03;;;1.10;;
809;SDS011;387;48.772;9.186;2023-03-14T06:59:07;2.10;;;1.13;;
809;SDS011;387;48.772;9.186;2023-03-14T07:01:32;2.80;;;0.90;;
809;SDS011;387;48.772;9.186;2023-03-14T07:03:59;3.03;;;0.93;;
809;SDS011;387;48.772;9.186;2023-03-14T07:06:26;1.83;;;0.93;;
809;SDS011;387;48.772;9.186;2023-03-14T07:08:54;2.40;;;1.00;;
809;SDS011;387;48.772;9.186;2023-03-14T07:11:20;3.37;;;1.00;;
809;SDS011;387;48.772;9.186;2023-03-14T07:13:46;6.33;;;0.80;;
809;SDS011;387;48.772;9.186;2023-03-14T07:16:12;1.50;;;0.80;;
809;SDS011;387;48.772;9.186;2023-03-14T07:18:38;2.00;;;0.90;;
809;SDS011;387;48.772;9.186;2023-03-14T07:21:04;1.57;;;0.93;;
809;SDS011;387;48.772;9.186;2023-03-14T07:23:31;1.77;;;0.80;;
809;SDS011;387;48.772;9.186;2023-03-14T07:25:56;2.23;;;0.90;;
809;SDS011;387;48.772;9.186;2023-03-14T07:28:22;2.20;;;0.70;;
809;SDS011;387;48.772;9.186;2023-03-14T07:30:48;2.47;;;0.80;;
809;SDS011;387;48.772;9.186;2023-03-14T07:33:14;1.17;;;0.60;;
809;SDS011;387;48.772;9.186;2023-03-14T07:35:39;3.53;;;1.07;;
809;SDS011;387;48.772;9.186;2023-03-14T07:38:05;3.10;;;1.10;;
809;SDS011;387;48.772;9.186;2023-03-14T07:40:30;1.50;;;0.80;;
809;SDS011;387;48.772;9.186;2023-03-14T07:42:56;3.63;;;0.90;;
809;SDS011;387;48.772;9.186;2023-03-14T07:45:22;4.40;;;1.10;;
809;SDS011;387;48.772;9.186;2023-03-14T07:47:48;2.00;;;0.83;;
809;SDS011;387;48.772;9.186;2023-03-14T07:50:13;2.20;;;0.80;;
809;SDS011;387;48.772;9.186;2023-03-14T07:52:39;3.17;;;0.90;;
809;SDS011;387;48.772;9.186;2023-03-14T07:55:05;1.37;;;0.70;;
809;SDS011;387;48.772;9.186;2023-03-14T07:57:31;1.70;;;1.20;;
809;SDS011;387;48.772;9.186;2023-03-14T07:59:56;1.40;;;0.77;;
809;SDS011;387;48.772;9.186;2023-03-14T08:02:22;5.10;;;0.83;;
809;SDS011;387;48.772;9.186;2023-03-14T08:04:49;1.63;;;0.60;;
809;SDS011;387;48.772;9.186;2023-03-14T08:07:15;1.10;;;0.73;;
809;SDS011;387;48.772;9.186;2023-03-14T08:09:41;1.60;;;0.70;;
809;SDS011;387;48.772;9.186;2023-03-14T08:12:07;1.87;;;1.20;;
809;SDS011;387;48.772;9.186;2023-03-14T08:14:32;1.67;;;0.70;;
809;SDS011;387;48.772;9.186;2023-03-14T08:16:58;5.70;;;0.90;;
809;SDS011;387;48.772;9.186;2023-03-14T08:19:24;3.23;;;0.80;;
809;SDS011;387;48.772;9.186;2023-03-14T08:21:49;2.03;;;1.00;;
809;SDS011;387;48.772;9.186;2023-03-14T08:24:15;2.03;;;1.00;;
809;SDS011;387;48.772;9.186;2023-03-14T08:26:41;4.83;;;1.37;;
809;SDS011;387;48.772;9.186;2023-03-14T08:29:06;2.93;;;1.00;;
809;SDS011;387;48.772;9.186;2023-03-14T08:31:33;1.53;;;0.80;;
809;SDS011;387;48.772;9.186;2023-03-14T08:34:02;3.63;;;1.23;;
809;SDS011;387;48.772;9.186;2023-03-14T08:36:28;1.30;;;1.00;;
809;SDS011;387;48.772;9.186;2023-03-14T08:38:54;3.00;;;0.60;;
809;SDS011;387;48.772;9.186;2023-03-14T08:41:19;2.77;;;0.90;;
809;SDS011;387;48.772;9.186;2023-03-14T08:43:45;1.60;;;0.80;;
809;SDS011;387;48.772;9.186;2023-03-14T08:46:11;1.10;;;0.70;;
809;SDS011;387;48.772;9.186;2023-03-14T08:48:36;0.90;;;0.60;;
809;SDS011;387;48.772;9.186;2023-03-14T08:51:09;1.30;;;0.63;;
809;SDS011;387;48.772;9.186;2023-03-14T08:53:37;2.80;;;0.70;;
809;SDS011;387;48.772;9.186;2023-03-14T08:56:03;2.30;;;0.70;;
809;SDS011;387;48.772;9.186;2023-03-14T08:58:31;1.17;;;0.80;;
809;SDS011;387;48.772;9.186;2023-03-14T09:00:57;3.83;;;1.43;;
809;SDS011;387;48.772;9.186;2023-03-14T09:03:23;11.73;;;0.97;;
809;SDS011;387;48.772;9.186;2023-03-14T09:05:49;2.37;;;0.90;;
809;SDS011;387;48.772;9.186;2023-03-14T09:08:15;1.33;;;0.80;;
809;SDS011;387;48.772;9.186;2023-03-14T09:10:41;4.03;;;0.87;;
809;SDS011;387;48.772;9.186;2023-03-14T09:13:06;1.97;;;0.80;;
809;SDS011;387;48.772;9.186;2023-03-14T09:15:32;0.90;;;0.70;;
809;SDS011;387;48.772;9.186;2023-03-14T09:17:58;1.47;;;1.00;;
809;SDS011;387;48.772;9.186;2023-03-14T09:20:24;2.20;;;0.80;;
809;SDS011;387;48.772;9.186;2023-03-14T09:22:49;1.10;;;0.70;;
809;SDS011;387;48.772;9.186;2023-03-14T09:25:15;1.43;;;0.63;;
809;SDS011;387;48.772;9.186;2023-03-14T09:27:41;1.27;;;0.90;;
809;SDS011;387;48.772;9.186;2023-03-14T09:30:07;1.27;;;0.63;;
809;SDS011;387;48.772;9.186;2023-03-14T09:32:33;0.83;;;0.70;;
809;SDS011;387;48.772;9.186;2023-03-14T09:34:58;1.23;;;0.73;;
809;SDS011;387;48.772;9.186;2023-03-14T09:37:24;0.93;;;0.60;;
809;SDS011;387;48.772;9.186;2023-03-14T09:39:50;16.27;;;2.40;;
809;SDS011;387;48.772;9.186;2023-03-14T09:42:16;1.47;;;0.80;;
809;SDS011;387;48.772;9.186;2023-03-14T09:44:51;2.70;;;0.87;;
809;SDS011;387;48.772;9.186;2023-03-14T09:47:24;2.43;;;0.80;;
809;SDS011;387;48.772;9.186;2023-03-14T09:49:51;1.00;;;0.80;;
809;SDS011;387;48.772;9.186;2023-03-14T09:54:52;1.33;;;0.70;;
809;SDS011;387;48.772;9.186;2023-03-14T09:57:21;1.10;;;0.80;;
809;SDS011;387;48.772;9.186;2023-03-14T09:59:50;4.03;;;0.80;;
809;SDS011;387;48.772;9.186;2023-03-14T10:02:20;1.43;;;0.67;;
809;SDS011;387;48.772;9.186;2023-03-14T10:04:51;1.23;;;0.63;;
809;SDS011;387;48.772;9.186;2023-03-14T10:07:28;0.90;;;0.60;;
809;SDS011;387;48.772;9.186;2023-03-14T10:09:55;2.50;;;0.60;;
809;SDS011;387;48.772;9.186;2023-03-14T10:12:35;2.47;;;0.67;;
809;SDS011;387;48.772;9.186;2023-03-14T10:15:03;2.23;;;0.80;;
809;SDS011;387;48.772;9.186;2023-03-14T10:17:49;1.73;;;0.60;;
809;SDS011;387;48.772;9.186;2023-03-14T10:20:34;0.90;;;0.70;;
809;SDS011;387;48.772;9.186;2023-03-14T10:23:06;0.90;;;0.70;;
809;SDS011;387;48.772;9.186;2023-03-14T10:25:40;1.40;;;0.70;;
809;SDS011;387;48.772;9.186;2023-03-14T10:28:11;1.10;;;0.60;;
809;SDS011;387;48.772;9.186;2023-03-14T10:30:52;0.93;;;0.60;;
809;SDS011;387;48.772;9.186;2023-03-14T10:33:23;1.00;;;0.50;;
809;SDS011;387;48.772;9.186;2023-03-14T10:35:57;0.90;;;0.70;;
809;SDS011;387;48.772;9.186;2023-03-14T10:38:26;0.73;;;0.60;;
809;SDS011;387;48.772;9.186;2023-03-14T10:40:56;1.10;;;0.60;;
809;SDS011;387;48.772;9.186;2023-03-14T10:43:27;2.10;;;0.60;;
809;SDS011;387;48.772;9.186;2023-03-14T10:45:57;2.93;;;0.67;;
809;SDS011;387;48.772;9.186;2023-03-14T10:48:34;1.67;;;0.70;;
809;SDS011;387;48.772;9.186;2023-03-14T10:53:44;1.10;;;0.67;;
809;SDS011;387;48.772;9.186;2023-03-14T10:56:13;0.77;;;0.50;;
809;SDS011;387;48.772;9.186;2023-03-14T10:58:45;0.90;;;0.60;;
809;SDS011;387;48.772;9.186;2023-03-14T11:01:22;1.20;;;0.60;;
809;SDS011;387;48.772;9.186;2023-03-14T11:03:57;0.77;;;0.63;;
809;SDS011;387;48.772;9.186;2023-03-14T11:06:39;1.73;;;0.70;;
809;SDS011;387;48.772;9.186;2023-03-14T11:09:10;4.83;;;0.70;;
809;SDS011;387;48.772;9.186;2023-03-14T11:11:41;1.20;;;0.50;;
809;SDS011;387;48.772;9.186;2023-03-14T11:14:20;1.33;;;0.80;;
809;SDS011;387;48.772;9.186;2023-03-14T11:28:49;0.90;;;0.60;;
809;SDS011;387;48.772;9.186;2023-03-14T11:31:31;2.57;;;0.70;;
809;SDS011;387;48.772;9.186;2023-03-14T11:36:51;1.50;;;0.70;;
809;SDS011;387;48.772;9.186;2023-03-14T11:39:35;0.80;;;0.50;;
809;SDS011;387;48.772;9.186;2023-03-14T11:42:04;0.90;;;0.60;;
809;SDS011;387;48.772;9.186;2023-03-14T11:44:44;0.90;;;0.50;;
809;SDS011;387;48.772;9.186;2023-03-14T11:47:56;1.17;;;0.70;;
809;SDS011;387;48.772;9.186;2023-03-14T11:52:40;3.07;;;0.70;;
809;SDS011;387;48.772;9.186;2023-03-14T11:55:13;0.70;;;0.50;;
809;SDS011;387;48.772;9.186;2023-03-14T11:57:45;2.30;;;1.00;;
809;SDS011;387;48.772;9.186;2023-03-14T12:03:10;1.30;;;0.70;;
809;SDS011;387;48.772;9.186;2023-03-14T12:09:00;0.90;;;0.57;;
809;SDS011;387;48.772;9.186;2023-03-14T12:14:25;0.63;;;0.50;;
809;SDS011;387;48.772;9.186;2023-03-14T12:16:54;1.90;;;0.70;;
809;SDS011;387;48.772;9.186;2023-03-14T12:24:22;1.60;;;0.80;;
809;SDS011;387;48.772;9.186;2023-03-14T12:26:55;0.50;;;0.40;;
809;SDS011;387;48.772;9.186;2023-03-14T12:29:23;1.40;;;0.73;;
809;SDS011;387;48.772;9.186;2023-03-14T12:31:51;2.70;;;0.80;;
809;SDS011;387;48.772;9.186;2023-03-14T12:34:33;1.00;;;0.60;;
809;SDS011;387;48.772;9.186;2023-03-14T12:40:03;2.17;;;1.00;;
809;SDS011;387;48.772;9.186;2023-03-14T12:42:59;2.60;;;0.93;;
809;SDS011;387;48.772;9.186;2023-03-14T12:45:30;2.43;;;1.20;;
809;SDS011;387;48.772;9.186;2023-03-14T12:50:33;2.30;;;1.00;;
809;SDS011;387;48.772;9.186;2023-03-14T12:53:33;1.30;;;1.00;;
809;SDS011;387;48.772;9.186;2023-03-14T12:56:21;2.80;;;1.10;;
809;SDS011;387;48.772;9.186;2023-03-14T13:01:54;2.13;;;1.20;;
809;SDS011;387;48.772;9.186;2023-03-14T13:17:45;2.00;;;1.00;;
809;SDS011;387;48.772;9.186;2023-03-14T13:20:15;3.33;;;0.93;;
809;SDS011;387;48.772;9.186;2023-03-14T13:22:51;1.37;;;0.70;;
809;SDS011;387;48.772;9.186;2023-03-14T13:25:17;1.70;;;0.90;;
809;SDS011;387;48.772;9.186;2023-03-14T13:27:45;1.47;;;0.90;;
809;SDS011;387;48.772;9.186;2023-03-14T13:32:41;1.50;;;0.90;;
809;SDS011;387;48.772;9.186;2023-03-14T13:35:20;12.97;;;1.60;;
809;SDS011;387;48.772;9.186;2023-03-14T13:37:55;1.87;;;1.00;;
809;SDS011;387;48.772;9.186;2023-03-14T13:40:26;4.00;;;1.20;;
809;SDS011;387;48.772;9.186;2023-03-14T13:45:43;1.10;;;0.80;;
809;SDS011;387;48.772;9.186;2023-03-14T13:48:15;3.90;;;1.30;;
809;SDS011;387;48.772;9.186;2023-03-14T13:51:24;3.00;;;1.10;;
809;SDS011;387;48.772;9.186;2023-03-14T13:53:43;2.23;;;1.07;;
809;SDS011;387;48.772;9.186;2023-03-14T13:56:11;3.63;;;1.33;;
809;SDS011;387;48.772;9.186;2023-03-14T13:58:39;3.53;;;1.10;;
809;SDS011;387;48.772;9.186;2023-03-14T14:03:57;1.87;;;0.80;;
809;SDS011;387;48.772;9.186;2023-03-14T14:06:30;4.03;;;1.10;;
809;SDS011;387;48.772;9.186;2023-03-14T14:08:57;2.70;;;0.90;;
809;SDS011;387;48.772;9.186;2023-03-14T14:14:08;2.93;;;0.90;;
809;SDS011;387;48.772;9.186;2023-03-14T14:16:57;2.60;;;1.10;;
809;SDS011;387;48.772;9.186;2023-03-14T14:19:24;1.93;;;1.07;;
809;SDS011;387;48.772;9.186;2023-03-14T14:21:53;3.43;;;1.13;;
809;SDS011;387;48.772;9.186;2023-03-14T14:24:19;1.70;;;1.00;;
809;SDS011;387;48.772;9.186;2023-03-14T14:26:58;2.50;;;1.10;;
809;SDS011;387;48.772;9.186;2023-03-14T14:29:32;6.30;;;1.07;;
809;SDS011;387;48.772;9.186;2023-03-14T14:34:46;4.40;;;1.20;;
809;SDS011;387;48.772;9.186;2023-03-14T14:39:48;5.50;;;1.40;;
809;SDS011;387;48.772;9.186;2023-03-14T14:42:18;1.33;;;1.00;;
809;SDS011;387;48.772;9.186;2023-03-14T14:44:47;1.40;;;0.90;;
809;SDS011;387;48.772;9.186;2023-03-14T14:47:16;1.43;;;0.70;;
809;SDS011;387;48.772;9.186;2023-03-14T14:49:46;1.23;;;0.90;;
809;SDS011;387;48.772;9.186;2023-03-14T14:52:31;1.80;;;1.00;;
809;SDS011;387;48.772;9.186;2023-03-14T14:54:58;2.27;;;1.20;;
809;SDS011;387;48.772;9.186;2023-03-14T14:57:26;4.90;;;1.10;;
809;SDS011;387;48.772;9.186;2023-03-14T14:59:56;3.20;;;1.37;;
809;SDS011;387;48.772;9.186;2023-03-14T15:05:18;2.67;;;1.47;;
809;SDS011;387;48.772;9.186;2023-03-14T15:07:45;5.77;;;1.63;;
809;SDS011;387;48.772;9.186;2023-03-14T15:10:12;2.70;;;1.33;;
809;SDS011;387;48.772;9.186;2023-03-14T15:12:40;4.03;;;1.00;;
809;SDS011;387;48.772;9.186;2023-03-14T15:15:09;4.83;;;1.10;;
809;SDS011;387;48.772;9.186;2023-03-14T15:17:35;6.63;;;1.53;;
809;SDS011;387;48.772;9.186;2023-03-14T15:20:02;5.73;;;1.13;;
809;SDS011;387;48.772;9.186;2023-03-14T15:22:31;2.37;;;1.53;;
809;SDS011;387;48.772;9.186;2023-03-14T15:24:57;3.33;;;1.30;;
809;SDS011;387;48.772;9.186;2023-03-14T15:27:22;2.90;;;1.30;;
809;SDS011;387;48.772;9.186;2023-03-14T15:29:48;2.37;;;1.20;;
809;SDS011;387;48.772;9.186;2023-03-14T15:32:15;3.10;;;1.10;;
809;SDS011;387;48.772;9.186;2023-03-14T15:34:42;2.30;;;1.10;;
809;SDS011;387;48.772;9.186;2023-03-14T15:37:12;3.20;;;1.33;;
809;SDS011;387;48.772;9.186;2023-03-14T15:39:41;2.27;;;1.10;;
809;SDS011;387;48.772;9.186;2023-03-14T15:42:07;3.57;;;1.37;;
809;SDS011;387;48.772;9.186;2023-03-14T15:44:33;4.07;;;1.30;;
809;SDS011;387;48.772;9.186;2023-03-14T15:46:59;4.10;;;1.20;;
809;SDS011;387;48.772;9.186;2023-03-14T15:49:25;3.13;;;1.87;;
809;SDS011;387;48.772;9.186;2023-03-14T15:51:51;2.93;;;1.40;;
809;SDS011;387;48.772;9.186;2023-03-14T15:54:16;2.73;;;1.43;;
809;SDS011;387;48.772;9.186;2023-03-14T15:56:42;2.40;;;1.20;;
809;SDS011;387;48.772;9.186;2023-03-14T15:59:07;3.17;;;1.40;;
809;SDS011;387;48.772;9.186;2023-03-14T16:01:33;1.80;;;1.07;;
809;SDS011;387;48.772;9.186;2023-03-14T16:03:58;2.77;;;1.40;;
809;SDS011;387;48.772;9.186;2023-03-14T16:06:24;2.43;;;1.20;;
809;SDS011;387;48.772;9.186;2023-03-14T16:08:50;2.50;;;1.30;;
809;SDS011;387;48.772;9.186;2023-03-14T16:11:15;5.37;;;1.67;;
809;SDS011;387;48.772;9.186;2023-03-14T16:13:45;2.70;;;1.20;;
809;SDS011;387;48.772;9.186;2023-03-14T16:16:11;3.67;;;1.60;;
809;SDS011;387;48.772;9.186;2023-03-14T16:18:40;1.30;;;1.00;;
809;SDS011;387;48.772;9.186;2023-03-14T16:21:06;1.67;;;1.20;;
809;SDS011;387;48.772;9.186;2023-03-14T16:23:35;1.77;;;1.17;;
809;SDS011;387;48.772;9.186;2023-03-14T16:26:05;12.00;;;1.90;;
809;SDS011;387;48.772;9.186;2023-03-14T16:28:32;2.70;;;1.20;;
809;SDS011;387;48.772;9.186;2023-03-14T16:31:05;3.57;;;1.70;;
809;SDS011;387;48.772;9.186;2023-03-14T16:33:33;5.10;;;1.40;;
809;SDS011;387;48.772;9.186;2023-03-14T16:36:01;3.43;;;1.60;;
809;SDS011;387;48.772;9.186;2023-03-14T16:38:32;2.83;;;1.30;;
809;SDS011;387;48.772;9.186;2023-03-14T16:43:30;2.57;;;1.53;;
809;SDS011;387;48.772;9.186;2023-03-14T16:45:56;3.10;;;2.00;;
809;SDS011;387;48.772;9.186;2023-03-14T16:48:23;3.30;;;1.50;;
809;SDS011;387;48.772;9.186;2023-03-14T16:50:49;7.50;;;1.60;;
809;SDS011;387;48.772;9.186;2023-03-14T16:53:15;2.33;;;1.33;;
809;SDS011;387;48.772;9.186;2023-03-14T16:55:41;4.17;;;1.30;;
809;SDS011;387;48.772;9.186;2023-03-14T16:58:08;3.33;;;1.33;;
809;SDS011;387;48.772;9.186;2023-03-14T17:00:33;6.10;;;1.70;;
809;SDS011;387;48.772;9.186;2023-03-14T17:02:59;4.70;;;2.13;;
809;SDS011;387;48.772;9.186;2023-03-14T17:05:25;3.77;;;1.80;;
809;SDS011;387;48.772;9.186;2023-03-14T17:07:51;8.53;;;1.67;;
809;SDS011;387;48.772;9.186;2023-03-14T17:10:16;4.00;;;1.47;;
809;SDS011;387;48.772;9.186;2023-03-14T17:12:42;8.73;;;1.50;;
809;SDS011;387;48.772;9.186;2023-03-14T17:15:08;3.73;;;1.23;;